sensor_id;sensor_type;location;lat;lon;timestamp;P1;durP1;ratioP1;P2;durP2;ratioP2
10910;SDS011;5508;49.150;11.030;2023-02-28T00:02:21;5.60;;;3.13;;
10910;SDS011;5508;49.150;11.030;2023-02-28T00:05:22;5.57;;;3.37;;
10910;SDS011;5508;49.150;11.030;2023-02-28T00:08:24;5.60;;;3.87;;
10910;SDS011;5508;49.150;11.030;2023-02-28T00:11:24;5.53;;;4.40;;
10910;SDS011;5508;49.150;11.030;2023-02-28T00:14:25;6.40;;;4.80;;
10910;SDS011;5508;49.150;11.030;2023-02-28T00:17:26;8.30;;;4.47;;
10910;SDS011;5508;49.150;11.030;2023-02-28T00:20:26;10.27;;;4.93;;
10910;SDS011;5508;49.150;11.030;2023-02-28T00:23:27;6.57;;;4.30;;
10910;SDS011;5508;49.150;11.030;2023-02-28T00:26:28;5.33;;;3.80;;
10910;SDS011;5508;49.150;11.030;2023-02-28T00:29:29;6.30;;;3.80;;
10910;SDS011;5508;49.150;11.030;2023-02-28T00:32:30;6.43;;;4.10;;
10910;SDS011;5508;49.150;11.030;2023-02-28T00:35:31;4.00;;;3.33;;
10910;SDS011;5508;49.150;11.030;2023-02-28T00:38:31;5.53;;;4.00;;
10910;SDS011;5508;49.150;11.030;2023-02-28T00:41:32;5.33;;;3.87;;
10910;SDS011;5508;49.150;11.030;2023-02-28T00:44:33;8.63;;;3.80;;
10910;SDS011;5508;49.150;11.030;2023-02-28T00:47:33;4.97;;;3.27;;
10910;SDS011;5508;49.150;11.030;2023-02-28T00:50:34;6.40;;;3.60;;
10910;SDS011;5508;49.150;11.030;2023-02-28T00:53:35;5.50;;;3.53;;
10910;SDS011;5508;49.150;11.030;2023-02-28T00:56:35;6.57;;;3.83;;
10910;SDS011;5508;49.150;11.030;2023-02-28T00:59:36;7.83;;;4.70;;
10910;SDS011;5508;49.150;11.030;2023-02-28T01:02:36;6.00;;;4.17;;
10910;SDS011;5508;49.150;11.030;2023-02-28T01:05:37;4.43;;;3.57;;
10910;SDS011;5508;49.150;11.030;2023-02-28T01:08:37;6.00;;;3.97;;
10910;SDS011;5508;49.150;11.030;2023-02-28T01:11:38;5.63;;;3.93;;
10910;SDS011;5508;49.150;11.030;2023-02-28T01:14:41;6.30;;;3.33;;
10910;SDS011;5508;49.150;11.030;2023-02-28T01:17:42;6.03;;;3.33;;
10910;SDS011;5508;49.150;11.030;2023-02-28T01:20:43;5.27;;;3.93;;
10910;SDS011;5508;49.150;11.030;2023-02-28T01:23:44;5.83;;;3.90;;
10910;SDS011;5508;49.150;11.030;2023-02-28T01:26:45;5.57;;;3.90;;
10910;SDS011;5508;49.150;11.030;2023-02-28T01:29:46;8.00;;;4.03;;
10910;SDS011;5508;49.150;11.030;2023-02-28T01:32:47;8.23;;;4.10;;
10910;SDS011;5508;49.150;11.030;2023-02-28T01:35:47;5.17;;;3.70;;
10910;SDS011;5508;49.150;11.030;2023-02-28T01:38:48;6.07;;;4.30;;
10910;SDS011;5508;49.150;11.030;2023-02-28T01:41:49;5.27;;;3.80;;
10910;SDS011;5508;49.150;11.030;2023-02-28T01:44:54;6.60;;;4.00;;
10910;SDS011;5508;49.150;11.030;2023-02-28T01:47:57;5.90;;;3.73;;
10910;SDS011;5508;49.150;11.030;2023-02-28T01:51:04;5.20;;;3.73;;
10910;SDS011;5508;49.150;11.030;2023-02-28T01:54:09;6.90;;;3.60;;
10910;SDS011;5508;49.150;11.030;2023-02-28T01:57:15;6.37;;;3.90;;
10910;SDS011;5508;49.150;11.030;2023-02-28T02:00:19;6.80;;;4.23;;
10910;SDS011;5508;49.150;11.030;2023-02-28T02:03:23;6.90;;;4.50;;
10910;SDS011;5508;49.150;11.030;2023-02-28T02:06:45;7.00;;;4.30;;
10910;SDS011;5508;49.150;11.030;2023-02-28T02:09:46;6.27;;;4.60;;
10910;SDS011;5508;49.150;11.030;2023-02-28T02:36:30;6.87;;;4.63;;
10910;SDS011;5508;49.150;11.030;2023-02-28T02:42:52;6.77;;;4.27;;
10910;SDS011;5508;49.150;11.030;2023-02-28T02:46:21;6.43;;;4.47;;
10910;SDS011;5508;49.150;11.030;2023-02-28T02:49:30;7.50;;;4.40;;
10910;SDS011;5508;49.150;11.030;2023-02-28T02:52:34;6.00;;;4.10;;
10910;SDS011;5508;49.150;11.030;2023-02-28T02:55:41;8.27;;;4.93;;
10910;SDS011;5508;49.150;11.030;2023-02-28T02:58:44;7.40;;;4.73;;
10910;SDS011;5508;49.150;11.030;2023-02-28T03:01:50;6.17;;;3.90;;
10910;SDS011;5508;49.150;11.030;2023-02-28T03:04:53;6.50;;;4.27;;
10910;SDS011;5508;49.150;11.030;2023-02-28T03:08:03;6.67;;;4.60;;
10910;SDS011;5508;49.150;11.030;2023-02-28T03:11:06;9.83;;;5.07;;
10910;SDS011;5508;49.150;11.030;2023-02-28T03:14:35;6.37;;;4.33;;
10910;SDS011;5508;49.150;11.030;2023-02-28T03:17:53;5.13;;;3.50;;
10910;SDS011;5508;49.150;11.030;2023-02-28T03:24:14;4.73;;;3.43;;
10910;SDS011;5508;49.150;11.030;2023-02-28T03:27:29;5.40;;;3.90;;
10910;SDS011;5508;49.150;11.030;2023-02-28T03:30:36;4.83;;;3.80;;
10910;SDS011;5508;49.150;11.030;2023-02-28T03:33:47;5.33;;;3.80;;
10910;SDS011;5508;49.150;11.030;2023-02-28T03:37:18;6.80;;;4.27;;
10910;SDS011;5508;49.150;11.030;2023-02-28T03:40:23;10.07;;;5.00;;
10910;SDS011;5508;49.150;11.030;2023-02-28T03:43:29;5.70;;;4.17;;
10910;SDS011;5508;49.150;11.030;2023-02-28T03:46:36;7.97;;;4.93;;
10910;SDS011;5508;49.150;11.030;2023-02-28T03:49:46;6.20;;;4.20;;
10910;SDS011;5508;49.150;11.030;2023-02-28T03:52:58;6.73;;;4.40;;
10910;SDS011;5508;49.150;11.030;2023-02-28T03:56:17;9.63;;;5.20;;
10910;SDS011;5508;49.150;11.030;2023-02-28T03:59:40;7.50;;;4.50;;
10910;SDS011;5508;49.150;11.030;2023-02-28T04:02:44;5.70;;;3.97;;
10910;SDS011;5508;49.150;11.030;2023-02-28T04:05:50;7.23;;;4.67;;
10910;SDS011;5508;49.150;11.030;2023-02-28T04:08:55;8.17;;;4.20;;
10910;SDS011;5508;49.150;11.030;2023-02-28T04:11:56;5.60;;;3.90;;
10910;SDS011;5508;49.150;11.030;2023-02-28T04:14:56;5.30;;;4.33;;
10910;SDS011;5508;49.150;11.030;2023-02-28T04:17:57;6.13;;;4.07;;
10910;SDS011;5508;49.150;11.030;2023-02-28T04:20:59;9.40;;;5.70;;
10910;SDS011;5508;49.150;11.030;2023-02-28T04:24:00;8.13;;;5.27;;
10910;SDS011;5508;49.150;11.030;2023-02-28T04:27:01;9.97;;;5.50;;
10910;SDS011;5508;49.150;11.030;2023-02-28T04:30:01;7.90;;;5.30;;
10910;SDS011;5508;49.150;11.030;2023-02-28T04:33:02;12.60;;;5.93;;
10910;SDS011;5508;49.150;11.030;2023-02-28T04:36:04;8.17;;;5.50;;
10910;SDS011;5508;49.150;11.030;2023-02-28T04:39:07;8.67;;;6.10;;
10910;SDS011;5508;49.150;11.030;2023-02-28T04:42:10;11.63;;;5.77;;
10910;SDS011;5508;49.150;11.030;2023-02-28T04:45:11;7.43;;;5.10;;
10910;SDS011;5508;49.150;11.030;2023-02-28T04:48:12;8.47;;;5.17;;
10910;SDS011;5508;49.150;11.030;2023-02-28T04:51:13;7.40;;;5.37;;
10910;SDS011;5508;49.150;11.030;2023-02-28T04:54:15;7.80;;;5.20;;
10910;SDS011;5508;49.150;11.030;2023-02-28T04:57:17;8.07;;;5.00;;
10910;SDS011;5508;49.150;11.030;2023-02-28T05:00:18;8.33;;;5.00;;
10910;SDS011;5508;49.150;11.030;2023-02-28T05:03:19;12.43;;;6.40;;
10910;SDS011;5508;49.150;11.030;2023-02-28T05:06:22;8.13;;;5.60;;
10910;SDS011;5508;49.150;11.030;2023-02-28T05:09:24;10.40;;;6.07;;
10910;SDS011;5508;49.150;11.030;2023-02-28T05:12:25;8.70;;;5.63;;
10910;SDS011;5508;49.150;11.030;2023-02-28T05:15:25;15.37;;;8.17;;
10910;SDS011;5508;49.150;11.030;2023-02-28T05:18:26;38.20;;;11.90;;
10910;SDS011;5508;49.150;11.030;2023-02-28T05:24:33;33.27;;;12.87;;
10910;SDS011;5508;49.150;11.030;2023-02-28T05:27:34;25.17;;;11.23;;
10910;SDS011;5508;49.150;11.030;2023-02-28T05:30:34;34.10;;;15.43;;
10910;SDS011;5508;49.150;11.030;2023-02-28T05:33:35;45.80;;;19.27;;
10910;SDS011;5508;49.150;11.030;2023-02-28T05:36:36;34.33;;;17.23;;
10910;SDS011;5508;49.150;11.030;2023-02-28T05:39:37;38.20;;;15.97;;
10910;SDS011;5508;49.150;11.030;2023-02-28T05:42:38;45.70;;;21.00;;
10910;SDS011;5508;49.150;11.030;2023-02-28T05:45:39;46.03;;;19.47;;
10910;SDS011;5508;49.150;11.030;2023-02-28T05:48:40;54.33;;;19.20;;
10910;SDS011;5508;49.150;11.030;2023-02-28T05:51:42;33.03;;;15.80;;
10910;SDS011;5508;49.150;11.030;2023-02-28T05:54:42;25.60;;;13.47;;
10910;SDS011;5508;49.150;11.030;2023-02-28T05:57:43;18.30;;;11.47;;
10910;SDS011;5508;49.150;11.030;2023-02-28T06:00:43;21.30;;;12.50;;
10910;SDS011;5508;49.150;11.030;2023-02-28T06:03:45;26.87;;;14.17;;
10910;SDS011;5508;49.150;11.030;2023-02-28T06:06:49;29.47;;;14.23;;
10910;SDS011;5508;49.150;11.030;2023-02-28T06:09:50;20.10;;;12.47;;
10910;SDS011;5508;49.150;11.030;2023-02-28T06:12:50;23.13;;;12.93;;
10910;SDS011;5508;49.150;11.030;2023-02-28T06:15:51;23.40;;;16.17;;
10910;SDS011;5508;49.150;11.030;2023-02-28T06:18:51;23.87;;;15.77;;
10910;SDS011;5508;49.150;11.030;2023-02-28T06:21:53;26.77;;;16.77;;
10910;SDS011;5508;49.150;11.030;2023-02-28T06:24:55;27.33;;;17.07;;
10910;SDS011;5508;49.150;11.030;2023-02-28T06:27:56;30.27;;;16.87;;
10910;SDS011;5508;49.150;11.030;2023-02-28T06:30:57;35.77;;;19.47;;
10910;SDS011;5508;49.150;11.030;2023-02-28T06:33:58;47.17;;;24.63;;
10910;SDS011;5508;49.150;11.030;2023-02-28T06:36:58;35.50;;;19.37;;
10910;SDS011;5508;49.150;11.030;2023-02-28T06:40:02;23.73;;;11.97;;
10910;SDS011;5508;49.150;11.030;2023-02-28T06:43:03;27.90;;;12.90;;
10910;SDS011;5508;49.150;11.030;2023-02-28T06:46:05;21.67;;;13.20;;
10910;SDS011;5508;49.150;11.030;2023-02-28T06:49:08;23.77;;;14.27;;
10910;SDS011;5508;49.150;11.030;2023-02-28T06:52:10;21.70;;;13.13;;
10910;SDS011;5508;49.150;11.030;2023-02-28T06:55:10;18.33;;;11.23;;
10910;SDS011;5508;49.150;11.030;2023-02-28T06:58:11;17.17;;;10.73;;
10910;SDS011;5508;49.150;11.030;2023-02-28T07:01:15;20.53;;;12.03;;
10910;SDS011;5508;49.150;11.030;2023-02-28T07:04:16;20.67;;;12.20;;
10910;SDS011;5508;49.150;11.030;2023-02-28T07:07:17;20.40;;;10.97;;
10910;SDS011;5508;49.150;11.030;2023-02-28T07:10:17;15.77;;;10.23;;
10910;SDS011;5508;49.150;11.030;2023-02-28T07:13:18;14.17;;;9.47;;
10910;SDS011;5508;49.150;11.030;2023-02-28T07:16:18;15.10;;;9.40;;
10910;SDS011;5508;49.150;11.030;2023-02-28T07:19:19;13.70;;;10.20;;
10910;SDS011;5508;49.150;11.030;2023-02-28T07:22:20;13.50;;;9.67;;
10910;SDS011;5508;49.150;11.030;2023-02-28T07:25:25;15.47;;;10.10;;
10910;SDS011;5508;49.150;11.030;2023-02-28T07:28:26;13.80;;;8.80;;
10910;SDS011;5508;49.150;11.030;2023-02-28T07:31:27;13.53;;;9.37;;
10910;SDS011;5508;49.150;11.030;2023-02-28T07:34:27;13.30;;;9.80;;
10910;SDS011;5508;49.150;11.030;2023-02-28T07:37:29;12.80;;;9.40;;
10910;SDS011;5508;49.150;11.030;2023-02-28T07:40:31;15.07;;;10.50;;
10910;SDS011;5508;49.150;11.030;2023-02-28T07:43:32;15.03;;;8.87;;
10910;SDS011;5508;49.150;11.030;2023-02-28T07:46:32;19.87;;;10.17;;
10910;SDS011;5508;49.150;11.030;2023-02-28T07:49:36;13.10;;;9.33;;
10910;SDS011;5508;49.150;11.030;2023-02-28T07:52:37;15.50;;;10.50;;
10910;SDS011;5508;49.150;11.030;2023-02-28T07:55:38;21.47;;;11.20;;
10910;SDS011;5508;49.150;11.030;2023-02-28T07:58:39;19.73;;;11.13;;
10910;SDS011;5508;49.150;11.030;2023-02-28T08:01:39;16.23;;;8.97;;
10910;SDS011;5508;49.150;11.030;2023-02-28T08:04:40;12.60;;;8.47;;
10910;SDS011;5508;49.150;11.030;2023-02-28T08:07:41;15.27;;;9.13;;
10910;SDS011;5508;49.150;11.030;2023-02-28T08:10:42;14.37;;;9.27;;
10910;SDS011;5508;49.150;11.030;2023-02-28T08:13:43;13.57;;;9.33;;
10910;SDS011;5508;49.150;11.030;2023-02-28T08:16:45;13.70;;;8.17;;
10910;SDS011;5508;49.150;11.030;2023-02-28T08:19:46;14.83;;;8.53;;
10910;SDS011;5508;49.150;11.030;2023-02-28T08:22:46;10.67;;;6.73;;
10910;SDS011;5508;49.150;11.030;2023-02-28T08:25:54;11.47;;;8.37;;
10910;SDS011;5508;49.150;11.030;2023-02-28T08:28:55;11.20;;;8.37;;
10910;SDS011;5508;49.150;11.030;2023-02-28T08:31:56;13.10;;;8.37;;
10910;SDS011;5508;49.150;11.030;2023-02-28T08:34:57;12.37;;;7.97;;
10910;SDS011;5508;49.150;11.030;2023-02-28T08:37:57;12.10;;;7.90;;
10910;SDS011;5508;49.150;11.030;2023-02-28T08:40:59;10.50;;;7.10;;
10910;SDS011;5508;49.150;11.030;2023-02-28T08:44:01;14.30;;;9.07;;
10910;SDS011;5508;49.150;11.030;2023-02-28T08:47:02;12.57;;;8.47;;
10910;SDS011;5508;49.150;11.030;2023-02-28T08:50:03;12.63;;;7.90;;
10910;SDS011;5508;49.150;11.030;2023-02-28T08:53:04;10.43;;;7.80;;
10910;SDS011;5508;49.150;11.030;2023-02-28T08:56:06;16.70;;;8.50;;
10910;SDS011;5508;49.150;11.030;2023-02-28T08:59:14;13.27;;;8.73;;
10910;SDS011;5508;49.150;11.030;2023-02-28T09:02:15;17.63;;;9.53;;
10910;SDS011;5508;49.150;11.030;2023-02-28T09:05:15;11.87;;;8.13;;
10910;SDS011;5508;49.150;11.030;2023-02-28T09:08:16;15.63;;;8.67;;
10910;SDS011;5508;49.150;11.030;2023-02-28T09:11:17;13.37;;;8.70;;
10910;SDS011;5508;49.150;11.030;2023-02-28T09:14:19;9.60;;;7.00;;
10910;SDS011;5508;49.150;11.030;2023-02-28T09:17:19;19.40;;;9.60;;
10910;SDS011;5508;49.150;11.030;2023-02-28T09:20:20;10.53;;;7.30;;
10910;SDS011;5508;49.150;11.030;2023-02-28T09:23:21;26.80;;;9.40;;
10910;SDS011;5508;49.150;11.030;2023-02-28T09:26:23;21.43;;;8.63;;
10910;SDS011;5508;49.150;11.030;2023-02-28T09:29:25;13.43;;;8.33;;
10910;SDS011;5508;49.150;11.030;2023-02-28T09:32:26;12.93;;;9.47;;
10910;SDS011;5508;49.150;11.030;2023-02-28T09:35:27;19.17;;;9.63;;
10910;SDS011;5508;49.150;11.030;2023-02-28T09:38:28;12.53;;;8.13;;
10910;SDS011;5508;49.150;11.030;2023-02-28T09:41:30;12.10;;;8.20;;
10910;SDS011;5508;49.150;11.030;2023-02-28T09:44:43;12.23;;;7.77;;
10910;SDS011;5508;49.150;11.030;2023-02-28T09:47:46;13.03;;;8.10;;
10910;SDS011;5508;49.150;11.030;2023-02-28T09:50:59;10.80;;;8.10;;
10910;SDS011;5508;49.150;11.030;2023-02-28T09:54:05;12.07;;;8.20;;
10910;SDS011;5508;49.150;11.030;2023-02-28T10:00:35;12.40;;;7.73;;
10910;SDS011;5508;49.150;11.030;2023-02-28T10:03:40;9.77;;;7.73;;
10910;SDS011;5508;49.150;11.030;2023-02-28T10:06:48;11.57;;;7.77;;
10910;SDS011;5508;49.150;11.030;2023-02-28T10:09:52;15.77;;;8.37;;
10910;SDS011;5508;49.150;11.030;2023-02-28T10:12:57;13.87;;;8.00;;
10910;SDS011;5508;49.150;11.030;2023-02-28T10:16:24;9.90;;;7.67;;
10910;SDS011;5508;49.150;11.030;2023-02-28T10:19:35;9.67;;;7.47;;
10910;SDS011;5508;49.150;11.030;2023-02-28T10:23:00;8.33;;;6.47;;
10910;SDS011;5508;49.150;11.030;2023-02-28T10:26:12;10.23;;;7.40;;
10910;SDS011;5508;49.150;11.030;2023-02-28T10:29:18;12.80;;;7.97;;
10910;SDS011;5508;49.150;11.030;2023-02-28T10:32:40;12.33;;;8.87;;
10910;SDS011;5508;49.150;11.030;2023-02-28T10:35:43;10.87;;;7.20;;
10910;SDS011;5508;49.150;11.030;2023-02-28T10:38:44;12.00;;;8.13;;
10910;SDS011;5508;49.150;11.030;2023-02-28T10:41:46;14.17;;;8.23;;
10910;SDS011;5508;49.150;11.030;2023-02-28T10:44:47;11.53;;;7.60;;
10910;SDS011;5508;49.150;11.030;2023-02-28T10:47:49;9.30;;;7.40;;
10910;SDS011;5508;49.150;11.030;2023-02-28T10:51:37;11.07;;;7.93;;
10910;SDS011;5508;49.150;11.030;2023-02-28T10:54:39;11.97;;;7.90;;
10910;SDS011;5508;49.150;11.030;2023-02-28T10:57:40;10.83;;;8.43;;
10910;SDS011;5508;49.150;11.030;2023-02-28T11:00:41;9.53;;;7.13;;
10910;SDS011;5508;49.150;11.030;2023-02-28T11:03:43;10.33;;;7.37;;
10910;SDS011;5508;49.150;11.030;2023-02-28T11:06:43;13.10;;;7.27;;
10910;SDS011;5508;49.150;11.030;2023-02-28T11:09:46;10.17;;;7.50;;
10910;SDS011;5508;49.150;11.030;2023-02-28T11:12:49;9.13;;;7.47;;
10910;SDS011;5508;49.150;11.030;2023-02-28T11:15:53;11.60;;;7.13;;
10910;SDS011;5508;49.150;11.030;2023-02-28T11:18:56;12.30;;;8.13;;
10910;SDS011;5508;49.150;11.030;2023-02-28T11:21:59;13.20;;;8.47;;
10910;SDS011;5508;49.150;11.030;2023-02-28T11:25:06;10.70;;;7.83;;
10910;SDS011;5508;49.150;11.030;2023-02-28T11:28:54;11.30;;;7.23;;
10910;SDS011;5508;49.150;11.030;2023-02-28T11:31:34;19.97;;;11.63;;
10910;SDS011;5508;49.150;11.030;2023-02-28T11:34:36;11.00;;;7.90;;
10910;SDS011;5508;49.150;11.030;2023-02-28T11:37:38;12.80;;;7.90;;
10910;SDS011;5508;49.150;11.030;2023-02-28T11:40:44;20.70;;;10.70;;
10910;SDS011;5508;49.150;11.030;2023-02-28T11:47:34;9.87;;;7.53;;
10910;SDS011;5508;49.150;11.030;2023-02-28T11:57:00;10.93;;;7.77;;
10910;SDS011;5508;49.150;11.030;2023-02-28T12:03:31;9.63;;;7.53;;
10910;SDS011;5508;49.150;11.030;2023-02-28T12:13:26;9.87;;;8.03;;
10910;SDS011;5508;49.150;11.030;2023-02-28T12:16:49;11.77;;;8.80;;
10910;SDS011;5508;49.150;11.030;2023-02-28T12:26:38;14.30;;;8.77;;
10910;SDS011;5508;49.150;11.030;2023-02-28T12:33:31;14.07;;;8.40;;
10910;SDS011;5508;49.150;11.030;2023-02-28T12:36:15;10.83;;;8.23;;
10910;SDS011;5508;49.150;11.030;2023-02-28T12:42:27;13.13;;;8.63;;
10910;SDS011;5508;49.150;11.030;2023-02-28T12:48:57;12.90;;;9.00;;
10910;SDS011;5508;49.150;11.030;2023-02-28T12:52:01;12.97;;;9.20;;
10910;SDS011;5508;49.150;11.030;2023-02-28T12:58:36;9.63;;;7.37;;
10910;SDS011;5508;49.150;11.030;2023-02-28T13:01:51;11.90;;;8.17;;
10910;SDS011;5508;49.150;11.030;2023-02-28T13:12:07;11.47;;;8.73;;
10910;SDS011;5508;49.150;11.030;2023-02-28T13:15:19;13.13;;;7.80;;
10910;SDS011;5508;49.150;11.030;2023-02-28T13:18:28;10.83;;;8.27;;
10910;SDS011;5508;49.150;11.030;2023-02-28T13:21:32;9.87;;;8.27;;
10910;SDS011;5508;49.150;11.030;2023-02-28T13:24:50;10.00;;;7.27;;
10910;SDS011;5508;49.150;11.030;2023-02-28T13:27:52;10.53;;;8.43;;
10910;SDS011;5508;49.150;11.030;2023-02-28T13:31:04;9.43;;;7.23;;
10910;SDS011;5508;49.150;11.030;2023-02-28T13:34:12;11.47;;;8.40;;
10910;SDS011;5508;49.150;11.030;2023-02-28T13:37:36;12.07;;;7.73;;
10910;SDS011;5508;49.150;11.030;2023-02-28T13:40:43;11.13;;;8.60;;
10910;SDS011;5508;49.150;11.030;2023-02-28T13:53:29;12.10;;;8.53;;
10910;SDS011;5508;49.150;11.030;2023-02-28T13:56:45;14.07;;;9.30;;
10910;SDS011;5508;49.150;11.030;2023-02-28T14:06:55;10.67;;;8.50;;
10910;SDS011;5508;49.150;11.030;2023-02-28T14:10:04;11.07;;;8.17;;
10910;SDS011;5508;49.150;11.030;2023-02-28T14:16:40;11.23;;;8.60;;
10910;SDS011;5508;49.150;11.030;2023-02-28T14:19:46;14.00;;;9.40;;
10910;SDS011;5508;49.150;11.030;2023-02-28T14:22:58;11.43;;;8.63;;
10910;SDS011;5508;49.150;11.030;2023-02-28T14:26:13;9.20;;;7.37;;
10910;SDS011;5508;49.150;11.030;2023-02-28T14:36:40;11.77;;;8.30;;
10910;SDS011;5508;49.150;11.030;2023-02-28T14:39:42;12.03;;;9.13;;
10910;SDS011;5508;49.150;11.030;2023-02-28T14:42:48;18.27;;;13.17;;
10910;SDS011;5508;49.150;11.030;2023-02-28T14:45:57;11.70;;;8.17;;
10910;SDS011;5508;49.150;11.030;2023-02-28T14:49:00;9.53;;;7.80;;
10910;SDS011;5508;49.150;11.030;2023-02-28T14:55:24;14.23;;;8.97;;
10910;SDS011;5508;49.150;11.030;2023-02-28T14:58:32;9.70;;;7.80;;
10910;SDS011;5508;49.150;11.030;2023-02-28T15:01:33;14.63;;;8.63;;
10910;SDS011;5508;49.150;11.030;2023-02-28T15:04:34;11.67;;;7.90;;
10910;SDS011;5508;49.150;11.030;2023-02-28T15:07:35;11.40;;;8.80;;
10910;SDS011;5508;49.150;11.030;2023-02-28T15:10:36;13.33;;;9.57;;
10910;SDS011;5508;49.150;11.030;2023-02-28T15:13:44;13.20;;;8.30;;
10910;SDS011;5508;49.150;11.030;2023-02-28T15:16:52;12.27;;;9.40;;
10910;SDS011;5508;49.150;11.030;2023-02-28T15:19:59;17.20;;;9.47;;
10910;SDS011;5508;49.150;11.030;2023-02-28T15:23:00;13.00;;;9.97;;
10910;SDS011;5508;49.150;11.030;2023-02-28T15:26:01;13.03;;;9.83;;
10910;SDS011;5508;49.150;11.030;2023-02-28T15:29:22;12.50;;;8.70;;
10910;SDS011;5508;49.150;11.030;2023-02-28T15:32:32;14.37;;;10.03;;
10910;SDS011;5508;49.150;11.030;2023-02-28T15:35:37;15.27;;;10.90;;
10910;SDS011;5508;49.150;11.030;2023-02-28T15:38:38;17.70;;;11.20;;
10910;SDS011;5508;49.150;11.030;2023-02-28T15:41:39;12.43;;;9.83;;
10910;SDS011;5508;49.150;11.030;2023-02-28T15:44:39;14.33;;;10.00;;
10910;SDS011;5508;49.150;11.030;2023-02-28T15:47:40;14.67;;;9.90;;
10910;SDS011;5508;49.150;11.030;2023-02-28T15:50:47;12.73;;;9.77;;
10910;SDS011;5508;49.150;11.030;2023-02-28T15:54:06;14.20;;;10.73;;
10910;SDS011;5508;49.150;11.030;2023-02-28T15:57:17;12.87;;;9.23;;
10910;SDS011;5508;49.150;11.030;2023-02-28T16:00:21;14.27;;;9.73;;
10910;SDS011;5508;49.150;11.030;2023-02-28T16:03:27;14.57;;;10.90;;
10910;SDS011;5508;49.150;11.030;2023-02-28T16:10:01;15.87;;;10.40;;
10910;SDS011;5508;49.150;11.030;2023-02-28T16:13:02;17.47;;;10.83;;
10910;SDS011;5508;49.150;11.030;2023-02-28T16:16:03;14.10;;;11.00;;
10910;SDS011;5508;49.150;11.030;2023-02-28T16:19:04;16.17;;;11.40;;
10910;SDS011;5508;49.150;11.030;2023-02-28T16:22:04;17.47;;;11.50;;
10910;SDS011;5508;49.150;11.030;2023-02-28T16:25:05;15.87;;;11.77;;
10910;SDS011;5508;49.150;11.030;2023-02-28T16:28:18;14.37;;;11.20;;
10910;SDS011;5508;49.150;11.030;2023-02-28T16:31:21;16.37;;;11.10;;
10910;SDS011;5508;49.150;11.030;2023-02-28T16:34:21;16.23;;;10.57;;
10910;SDS011;5508;49.150;11.030;2023-02-28T16:37:22;16.63;;;12.30;;
10910;SDS011;5508;49.150;11.030;2023-02-28T16:40:24;16.73;;;11.20;;
10910;SDS011;5508;49.150;11.030;2023-02-28T16:43:26;15.47;;;11.50;;
10910;SDS011;5508;49.150;11.030;2023-02-28T16:46:27;17.57;;;12.13;;
10910;SDS011;5508;49.150;11.030;2023-02-28T16:49:33;15.13;;;10.70;;
10910;SDS011;5508;49.150;11.030;2023-02-28T16:52:33;16.13;;;11.47;;
10910;SDS011;5508;49.150;11.030;2023-02-28T16:55:34;20.70;;;12.43;;
10910;SDS011;5508;49.150;11.030;2023-02-28T16:58:34;22.67;;;14.13;;
10910;SDS011;5508;49.150;11.030;2023-02-28T17:01:35;23.10;;;15.47;;
10910;SDS011;5508;49.150;11.030;2023-02-28T17:04:36;37.13;;;21.70;;
10910;SDS011;5508;49.150;11.030;2023-02-28T17:07:36;37.40;;;25.10;;
10910;SDS011;5508;49.150;11.030;2023-02-28T17:10:37;24.97;;;15.33;;
10910;SDS011;5508;49.150;11.030;2023-02-28T17:13:37;15.90;;;11.57;;
10910;SDS011;5508;49.150;11.030;2023-02-28T17:16:38;23.60;;;13.97;;
10910;SDS011;5508;49.150;11.030;2023-02-28T17:19:42;20.07;;;13.13;;
10910;SDS011;5508;49.150;11.030;2023-02-28T17:22:43;18.50;;;13.07;;
10910;SDS011;5508;49.150;11.030;2023-02-28T17:25:47;17.47;;;12.23;;
10910;SDS011;5508;49.150;11.030;2023-02-28T17:28:53;17.80;;;11.63;;
10910;SDS011;5508;49.150;11.030;2023-02-28T17:31:58;22.83;;;14.60;;
10910;SDS011;5508;49.150;11.030;2023-02-28T17:34:58;22.90;;;16.50;;
10910;SDS011;5508;49.150;11.030;2023-02-28T17:37:59;22.23;;;16.27;;
10910;SDS011;5508;49.150;11.030;2023-02-28T17:40:59;20.70;;;13.40;;
10910;SDS011;5508;49.150;11.030;2023-02-28T17:44:00;18.33;;;12.63;;
10910;SDS011;5508;49.150;11.030;2023-02-28T17:47:01;22.73;;;12.37;;
10910;SDS011;5508;49.150;11.030;2023-02-28T17:50:01;27.77;;;18.87;;
10910;SDS011;5508;49.150;11.030;2023-02-28T17:53:02;41.13;;;27.97;;
10910;SDS011;5508;49.150;11.030;2023-02-28T17:56:02;20.97;;;14.70;;
10910;SDS011;5508;49.150;11.030;2023-02-28T17:59:04;13.77;;;10.40;;
10910;SDS011;5508;49.150;11.030;2023-02-28T18:02:04;15.73;;;11.70;;
10910;SDS011;5508;49.150;11.030;2023-02-28T18:05:05;19.43;;;13.23;;
10910;SDS011;5508;49.150;11.030;2023-02-28T18:08:08;20.27;;;15.30;;
10910;SDS011;5508;49.150;11.030;2023-02-28T18:11:16;21.83;;;16.50;;
10910;SDS011;5508;49.150;11.030;2023-02-28T18:14:18;24.77;;;15.73;;
10910;SDS011;5508;49.150;11.030;2023-02-28T18:17:20;21.37;;;14.67;;
10910;SDS011;5508;49.150;11.030;2023-02-28T18:20:20;25.43;;;17.07;;
10910;SDS011;5508;49.150;11.030;2023-02-28T18:23:21;24.07;;;16.20;;
10910;SDS011;5508;49.150;11.030;2023-02-28T18:26:21;18.63;;;14.43;;
10910;SDS011;5508;49.150;11.030;2023-02-28T18:29:24;20.60;;;14.90;;
10910;SDS011;5508;49.150;11.030;2023-02-28T18:32:25;20.90;;;13.57;;
10910;SDS011;5508;49.150;11.030;2023-02-28T18:35:26;16.07;;;12.50;;
10910;SDS011;5508;49.150;11.030;2023-02-28T18:38:34;21.00;;;14.13;;
10910;SDS011;5508;49.150;11.030;2023-02-28T18:41:34;21.63;;;14.70;;
10910;SDS011;5508;49.150;11.030;2023-02-28T18:44:35;24.40;;;14.77;;
10910;SDS011;5508;49.150;11.030;2023-02-28T18:47:36;20.70;;;14.07;;
10910;SDS011;5508;49.150;11.030;2023-02-28T18:50:37;21.63;;;14.93;;
10910;SDS011;5508;49.150;11.030;2023-02-28T18:53:38;35.93;;;20.40;;
10910;SDS011;5508;49.150;11.030;2023-02-28T18:56:41;30.47;;;19.00;;
10910;SDS011;5508;49.150;11.030;2023-02-28T18:59:42;27.10;;;17.23;;
10910;SDS011;5508;49.150;11.030;2023-02-28T19:02:42;22.37;;;15.97;;
10910;SDS011;5508;49.150;11.030;2023-02-28T19:05:43;38.67;;;21.70;;
10910;SDS011;5508;49.150;11.030;2023-02-28T19:08:43;178.47;;;61.17;;
10910;SDS011;5508;49.150;11.030;2023-02-28T19:11:44;38.90;;;22.03;;
10910;SDS011;5508;49.150;11.030;2023-02-28T19:14:45;42.07;;;25.90;;
10910;SDS011;5508;49.150;11.030;2023-02-28T19:17:46;45.37;;;26.63;;
10910;SDS011;5508;49.150;11.030;2023-02-28T19:20:46;42.70;;;26.80;;
10910;SDS011;5508;49.150;11.030;2023-02-28T19:23:47;39.53;;;25.17;;
10910;SDS011;5508;49.150;11.030;2023-02-28T19:26:48;43.60;;;24.80;;
10910;SDS011;5508;49.150;11.030;2023-02-28T19:29:49;45.57;;;27.60;;
10910;SDS011;5508;49.150;11.030;2023-02-28T19:32:50;51.57;;;30.53;;
10910;SDS011;5508;49.150;11.030;2023-02-28T19:35:51;60.27;;;31.90;;
10910;SDS011;5508;49.150;11.030;2023-02-28T19:38:52;59.30;;;34.30;;
10910;SDS011;5508;49.150;11.030;2023-02-28T19:41:52;50.23;;;30.33;;
10910;SDS011;5508;49.150;11.030;2023-02-28T19:44:53;52.67;;;30.67;;
10910;SDS011;5508;49.150;11.030;2023-02-28T19:47:54;42.70;;;27.63;;
10910;SDS011;5508;49.150;11.030;2023-02-28T19:50:56;40.07;;;22.97;;
10910;SDS011;5508;49.150;11.030;2023-02-28T19:53:57;33.37;;;20.73;;
10910;SDS011;5508;49.150;11.030;2023-02-28T19:56:58;33.77;;;21.03;;
10910;SDS011;5508;49.150;11.030;2023-02-28T20:00:00;39.60;;;22.73;;
10910;SDS011;5508;49.150;11.030;2023-02-28T20:03:01;36.47;;;18.77;;
10910;SDS011;5508;49.150;11.030;2023-02-28T20:06:06;24.03;;;15.13;;
10910;SDS011;5508;49.150;11.030;2023-02-28T20:09:08;19.17;;;14.20;;